createdAt,value
2017-11-11T00:00:49.816Z,75.04
2017-11-11T00:01:49.794Z,75.23
2017-11-11T00:02:49.773Z,74.94
2017-11-11T00:03:49.748Z,75.13
2017-11-11T00:04:49.725Z,75.04
2017-11-11T00:05:49.700Z,74.75
2017-11-11T00:06:49.679Z,75.04
2017-11-11T00:07:49.653Z,74.37
2017-11-11T00:08:49.638Z,75.04
2017-11-11T00:09:49.609Z,74.56
2017-11-11T00:10:49.591Z,73.99
2017-11-11T00:11:49.569Z,74.08
2017-11-11T00:13:04.125Z,74.08
2017-11-11T00:13:49.514Z,73.99
2017-11-11T00:14:49.506Z,73.90
2017-11-11T00:15:49.467Z,74.08
2017-11-11T00:16:49.449Z,74.08
2017-11-11T00:17:49.420Z,73.99
2017-11-11T00:18:49.401Z,73.90
2017-11-11T00:19:49.384Z,73.80
2017-11-11T00:20:49.357Z,73.71
2017-11-11T00:21:49.332Z,73.71
2017-11-11T00:22:49.307Z,73.52
2017-11-11T00:23:49.285Z,73.52
2017-11-11T00:24:49.258Z,73.61
2017-11-11T00:25:49.235Z,73.90
2017-11-11T00:26:49.219Z,73.52
2017-11-11T00:27:49.190Z,73.80
2017-11-11T00:28:49.175Z,73.52
2017-11-11T00:29:49.184Z,73.61
2017-11-11T00:30:49.172Z,73.52
2017-11-11T00:31:49.096Z,73.61
2017-11-11T00:32:49.069Z,73.52
2017-11-11T00:33:49.049Z,73.52
2017-11-11T00:34:49.029Z,73.33
2017-11-11T00:35:49.008Z,73.33
2017-11-11T00:36:48.986Z,73.52
2017-11-11T00:37:48.955Z,73.52
2017-11-11T00:38:48.937Z,73.52
2017-11-11T00:39:48.913Z,73.42
2017-11-11T00:40:48.892Z,73.14
2017-11-11T00:41:48.863Z,73.33
2017-11-11T00:42:48.838Z,73.33
2017-11-11T00:43:48.837Z,73.42
2017-11-11T00:44:48.795Z,73.42
2017-11-11T00:45:48.777Z,73.33
2017-11-11T00:46:48.756Z,73.42
2017-11-11T00:47:48.724Z,72.95
2017-11-11T00:48:48.700Z,73.33
2017-11-11T00:49:48.678Z,73.42
2017-11-11T00:50:48.655Z,73.23
2017-11-11T00:51:48.629Z,73.52
2017-11-11T00:52:48.607Z,73.04
2017-11-11T00:53:48.584Z,72.95
2017-11-11T00:54:48.560Z,72.66
2017-11-11T00:55:48.540Z,72.95
2017-11-11T00:56:48.517Z,73.04
2017-11-11T00:57:48.499Z,72.38
2017-11-11T00:58:48.477Z,72.19
2017-11-11T00:59:48.443Z,72.56
2017-11-11T01:00:48.429Z,72.56
2017-11-11T01:01:48.397Z,72.38
2017-11-11T01:02:48.383Z,72.47
2017-11-11T01:03:48.356Z,72.28
2017-11-11T01:04:48.329Z,72.38
2017-11-11T01:05:48.307Z,72.47
2017-11-11T01:06:48.283Z,72.47
2017-11-11T01:07:48.268Z,72.38
2017-11-11T01:08:48.241Z,72.47
2017-11-11T01:09:48.255Z,72.47
2017-11-11T01:10:48.192Z,72.56
2017-11-11T01:11:48.163Z,72.19
2017-11-11T01:12:48.151Z,72.09
2017-11-11T01:13:48.119Z,72.75
2017-11-11T01:14:48.095Z,72.19
2017-11-11T01:15:48.072Z,72.19
2017-11-11T01:23:03.382Z,72.19
2017-11-11T01:30:39.115Z,71.52
2017-11-11T01:31:11.582Z,72.09
2017-11-11T01:33:25.957Z,71.90
2017-11-11T01:42:07.221Z,72.09
2017-11-11T01:45:26.904Z,72.56
2017-11-11T01:48:19.137Z,72.09
2017-11-11T01:50:13.105Z,71.62
2017-11-11T01:51:46.812Z,72.38
2017-11-11T01:54:00.105Z,71.52
2017-11-11T01:55:00.064Z,72.19
2017-11-11T01:56:55.927Z,71.90
2017-11-11T01:57:55.886Z,71.81
2017-11-11T01:59:49.262Z,71.81
2017-11-11T02:00:49.219Z,71.23
2017-11-11T02:02:42.587Z,71.71
2017-11-11T02:03:42.535Z,71.14
2017-11-11T02:05:35.905Z,71.43
2017-11-11T02:06:35.863Z,71.04
2017-11-11T02:08:29.240Z,71.33
2017-11-11T02:09:31.774Z,71.43
2017-11-11T02:11:36.638Z,71.04
2017-11-11T02:12:22.534Z,70.86
2017-11-11T02:14:39.948Z,71.04
2017-11-11T02:15:15.838Z,71.23
2017-11-11T02:18:47.871Z,71.14
2017-11-11T02:19:44.808Z,71.23
2017-11-11T02:22:09.224Z,70.86
2017-11-11T02:22:40.658Z,70.86
2017-11-11T02:24:36.567Z,71.14
2017-11-11T02:25:37.053Z,70.76
2017-11-11T02:27:29.931Z,70.86
2017-11-11T02:29:45.788Z,70.67
2017-11-11T02:31:59.203Z,70.10
2017-11-11T02:32:59.128Z,70.48
2017-11-11T02:34:52.450Z,70.57
2017-11-11T02:35:52.445Z,70.19
2017-11-11T02:37:46.770Z,70.95
2017-11-11T02:38:46.728Z,70.95
2017-11-11T02:40:43.120Z,71.33
2017-11-11T02:41:42.556Z,71.43
2017-11-11T02:43:35.921Z,71.52
2017-11-11T02:44:35.875Z,70.86
2017-11-11T02:46:30.107Z,70.95
2017-11-11T02:47:30.056Z,70.86
2017-11-11T02:49:24.350Z,71.14
2017-11-11T02:50:24.302Z,70.95
2017-11-11T02:52:17.681Z,71.52
2017-11-11T02:53:17.632Z,72.00
2017-11-11T02:55:10.992Z,71.23
2017-11-11T02:56:10.940Z,71.43
2017-11-11T02:58:04.318Z,71.62
2017-11-11T02:59:04.285Z,71.90
2017-11-11T03:00:57.846Z,71.90
2017-11-11T03:01:57.794Z,71.90
2017-11-11T03:03:51.155Z,71.81
2017-11-11T03:04:51.112Z,71.62
2017-11-11T03:06:44.521Z,71.71
2017-11-11T03:07:44.510Z,70.95
2017-11-11T03:09:37.894Z,71.23
2017-11-11T03:10:37.807Z,71.14
2017-11-11T03:12:32.103Z,70.48
2017-11-11T03:13:32.055Z,70.38
2017-11-11T03:15:27.939Z,70.38
2017-11-11T03:16:27.890Z,70.48
2017-11-11T03:18:21.292Z,70.48
2017-11-11T03:19:21.247Z,70.48
2017-11-11T03:21:14.626Z,70.38
2017-11-11T03:22:14.603Z,70.38
2017-11-11T03:24:08.005Z,70.38
2017-11-11T03:25:07.952Z,70.38
2017-11-11T03:27:01.314Z,70.38
2017-11-11T03:28:01.265Z,70.19
2017-11-11T03:29:54.642Z,70.38
2017-11-11T03:30:54.597Z,70.48
2017-11-11T03:32:47.960Z,70.10
2017-11-11T03:33:47.919Z,70.29
2017-11-11T03:35:43.793Z,70.76
2017-11-11T03:36:43.754Z,71.04
2017-11-11T03:38:37.114Z,70.86
2017-11-11T03:39:37.077Z,70.86
2017-11-11T03:41:30.436Z,71.14
2017-11-11T03:42:30.414Z,71.23
2017-11-11T03:44:23.767Z,70.67
2017-11-11T03:45:23.722Z,70.76
2017-11-11T03:47:17.096Z,71.23
2017-11-11T03:48:17.059Z,71.04
2017-11-11T03:50:10.413Z,70.86
2017-11-11T03:51:10.374Z,71.33
2017-11-11T03:53:03.794Z,71.23
2017-11-11T03:54:03.735Z,71.14
2017-11-11T03:55:59.677Z,71.14
2017-11-11T03:56:59.628Z,71.04
2017-11-11T03:58:52.948Z,71.43
2017-11-11T03:59:52.900Z,71.43
2017-11-11T04:01:46.279Z,71.71
2017-11-11T04:02:46.229Z,71.81
2017-11-11T04:04:39.645Z,72.00
2017-11-11T04:05:39.542Z,72.09
2017-11-11T04:07:32.933Z,72.00
2017-11-11T04:08:32.890Z,72.38
2017-11-11T04:10:26.278Z,72.56
2017-11-11T04:11:26.235Z,72.38
2017-11-11T04:13:19.672Z,72.56
2017-11-11T04:14:19.569Z,73.23
2017-11-11T04:16:12.927Z,73.33
2017-11-11T04:17:12.888Z,73.52
2017-11-11T04:19:06.253Z,73.71
2017-11-11T04:20:06.212Z,73.52
2017-11-11T04:21:59.570Z,73.52
2017-11-11T04:22:59.562Z,73.90
2017-11-11T04:24:52.937Z,74.08
2017-11-11T04:25:52.893Z,74.08
2017-11-11T04:27:48.773Z,74.18
2017-11-11T04:28:48.730Z,74.18
2017-11-11T04:30:44.596Z,74.56
2017-11-11T04:31:44.553Z,74.66
2017-11-11T04:33:37.947Z,74.75
2017-11-11T04:34:37.907Z,74.47
2017-11-11T04:36:32.277Z,75.13
2017-11-11T04:37:32.080Z,74.85
2017-11-11T04:39:24.962Z,74.94
2017-11-11T04:40:24.922Z,74.66
2017-11-11T04:42:18.335Z,74.56
2017-11-11T04:43:18.297Z,74.66
2017-11-11T04:45:11.749Z,74.75
2017-11-11T04:46:11.671Z,74.37
2017-11-11T04:48:08.362Z,74.56
2017-11-11T04:49:08.317Z,74.56
2017-11-11T04:51:02.574Z,75.04
2017-11-11T04:52:02.530Z,75.04
2017-11-11T04:53:55.885Z,74.56
2017-11-11T04:54:55.846Z,74.75
2017-11-11T04:56:49.220Z,74.56
2017-11-11T04:57:49.182Z,74.56
2017-11-11T04:59:43.150Z,74.37
2017-11-11T05:00:42.492Z,74.47
2017-11-11T05:02:39.190Z,74.94
2017-11-11T05:03:39.157Z,74.75
2017-11-11T05:05:32.689Z,74.56
2017-11-11T05:06:32.495Z,74.66
2017-11-11T05:07:32.493Z,74.66
2017-11-11T05:08:32.465Z,74.75
2017-11-11T05:09:32.423Z,74.85
2017-11-11T05:10:32.410Z,74.85
2017-11-11T05:11:32.380Z,75.23
2017-11-11T05:12:32.357Z,75.23
2017-11-11T05:13:32.337Z,75.04
2017-11-11T05:14:32.316Z,75.04
2017-11-11T05:15:32.284Z,74.85
2017-11-11T05:16:32.286Z,75.99
2017-11-11T05:17:32.246Z,75.51
2017-11-11T05:18:32.216Z,75.60
2017-11-11T05:19:32.206Z,75.51
2017-11-11T05:20:32.176Z,75.70
2017-11-11T05:21:32.144Z,75.70
2017-11-11T05:22:32.121Z,75.70
2017-11-11T05:23:32.098Z,75.70
2017-11-11T05:24:32.071Z,75.89
2017-11-11T05:25:32.052Z,75.79
2017-11-11T05:26:32.047Z,75.99
2017-11-11T05:27:32.009Z,75.79
2017-11-11T05:28:31.983Z,76.27
2017-11-11T05:29:31.964Z,76.18
2017-11-11T05:30:31.937Z,76.08
2017-11-11T05:31:31.920Z,76.18
2017-11-11T05:32:31.888Z,76.46
2017-11-11T05:33:31.864Z,76.46
2017-11-11T05:34:31.847Z,76.75
2017-11-11T05:35:31.821Z,76.37
2017-11-11T05:36:31.844Z,77.03
2017-11-11T05:37:31.771Z,76.65
2017-11-11T05:38:31.747Z,77.22
2017-11-11T05:39:31.727Z,76.75
2017-11-11T05:40:31.707Z,76.93
2017-11-11T05:41:31.679Z,77.03
2017-11-11T05:42:31.655Z,76.65
2017-11-11T05:43:31.634Z,76.75
2017-11-11T05:44:31.610Z,76.75
2017-11-11T05:45:31.588Z,77.12
2017-11-11T05:46:31.574Z,77.12
2017-11-11T05:47:31.536Z,76.75
2017-11-11T05:48:31.515Z,76.65
2017-11-11T05:49:31.495Z,76.56
2017-11-11T05:50:31.467Z,76.93
2017-11-11T05:51:31.456Z,76.84
2017-11-11T05:52:31.419Z,76.08
2017-11-11T05:53:31.401Z,76.27
2017-11-11T05:54:31.373Z,75.51
2017-11-11T05:55:31.352Z,75.89
2017-11-11T05:56:31.328Z,75.99
2017-11-11T05:57:31.312Z,75.89
2017-11-11T05:58:31.285Z,76.08
2017-11-11T05:59:31.260Z,76.18
2017-11-11T06:00:31.257Z,75.70
2017-11-11T06:01:31.210Z,76.37
2017-11-11T06:02:31.184Z,76.46
2017-11-11T06:03:31.168Z,76.18
2017-11-11T06:04:31.141Z,76.32
2017-11-11T06:05:31.138Z,76.14
2017-11-11T06:06:31.093Z,76.14
2017-11-11T06:07:31.086Z,76.18
2017-11-11T06:08:31.057Z,76.75
2017-11-11T06:09:31.032Z,76.52
2017-11-11T06:10:31.020Z,76.71
2017-11-11T06:11:30.984Z,76.80
2017-11-11T06:12:30.964Z,76.93
2017-11-11T06:13:30.941Z,76.42
2017-11-11T06:14:30.914Z,77.09
2017-11-11T06:15:30.916Z,77.03
2017-11-11T06:16:30.932Z,77.03
2017-11-11T06:17:30.864Z,77.03
2017-11-11T06:18:30.831Z,76.71
2017-11-11T06:19:30.808Z,76.93
2017-11-11T06:20:30.785Z,76.80
2017-11-11T06:21:30.754Z,76.52
2017-11-11T06:22:30.734Z,76.80
2017-11-11T06:23:30.708Z,77.09
2017-11-11T06:24:30.681Z,76.84
2017-11-11T06:25:30.678Z,76.80
2017-11-11T06:26:30.647Z,76.71
2017-11-11T06:27:30.628Z,76.71
2017-11-11T06:28:30.593Z,77.47
2017-11-11T06:29:30.570Z,76.90
2017-11-11T06:30:30.551Z,76.90
2017-11-11T06:31:30.516Z,77.09
2017-11-11T06:32:30.493Z,77.09
2017-11-11T06:33:30.469Z,77.37
2017-11-11T06:34:30.468Z,77.41
2017-11-11T06:35:30.421Z,77.31
2017-11-11T06:36:30.399Z,77.70
2017-11-11T06:37:30.381Z,77.18
2017-11-11T06:38:30.349Z,76.90
2017-11-11T06:39:30.326Z,76.93
2017-11-11T06:40:30.307Z,77.37
2017-11-11T06:41:30.281Z,76.80
2017-11-11T06:42:30.261Z,77.47
2017-11-11T06:43:30.236Z,77.37
2017-11-11T06:44:30.215Z,77.31
2017-11-11T06:45:30.187Z,77.28
2017-11-11T06:46:30.175Z,77.37
2017-11-11T06:47:30.156Z,77.56
2017-11-11T06:48:30.117Z,77.70
2017-11-11T06:49:30.096Z,77.18
2017-11-11T06:50:30.080Z,77.18
2017-11-11T06:51:30.047Z,77.94
2017-11-11T06:52:30.029Z,77.75
2017-11-11T06:53:30.004Z,77.66
2017-11-11T06:54:29.979Z,77.79
2017-11-11T06:55:29.955Z,77.28
2017-11-11T06:56:29.929Z,77.84
2017-11-11T06:57:29.912Z,77.31
2017-11-11T06:58:29.883Z,77.89
2017-11-11T06:59:29.864Z,77.98
2017-11-11T07:00:29.843Z,77.51
2017-11-11T07:01:29.820Z,77.03
2017-11-11T07:02:29.786Z,77.60
2017-11-11T07:03:29.766Z,77.12
2017-11-11T07:04:29.749Z,76.75
2017-11-11T07:05:29.730Z,76.84
2017-11-11T07:06:29.705Z,77.03
2017-11-11T07:07:29.677Z,76.56
2017-11-11T07:08:29.651Z,76.75
2017-11-11T07:09:29.626Z,76.75
2017-11-11T07:10:29.601Z,76.75
2017-11-11T07:11:29.579Z,76.84
2017-11-11T07:12:29.561Z,77.03
2017-11-11T07:13:29.532Z,76.93
2017-11-11T07:14:29.513Z,76.75
2017-11-11T07:15:29.488Z,76.65
2017-11-11T07:16:29.467Z,76.75
2017-11-11T07:17:29.446Z,76.65
2017-11-11T07:18:29.417Z,76.75
2017-11-11T07:19:29.389Z,76.37
2017-11-11T07:20:29.370Z,76.18
2017-11-11T07:21:29.357Z,75.99
2017-11-11T07:22:29.318Z,76.27
2017-11-11T07:23:29.298Z,76.27
2017-11-11T07:24:29.275Z,75.70
2017-11-11T07:25:29.255Z,75.79
2017-11-11T07:26:29.231Z,76.18
2017-11-11T07:27:29.208Z,76.18
2017-11-11T07:28:29.184Z,75.89
2017-11-11T07:29:29.158Z,75.70
2017-11-11T07:30:29.135Z,76.65
2017-11-11T07:31:29.114Z,76.65
2017-11-11T07:32:29.085Z,76.37
2017-11-11T07:33:29.092Z,75.70
2017-11-11T07:34:29.037Z,75.99
2017-11-11T07:35:29.020Z,75.99
2017-11-11T07:36:29.004Z,75.60
2017-11-11T07:37:28.975Z,74.94
2017-11-11T07:38:28.955Z,75.32
2017-11-11T07:39:28.921Z,75.23
2017-11-11T07:40:28.908Z,75.13
2017-11-11T07:41:28.878Z,75.42
2017-11-11T07:42:28.855Z,75.42
2017-11-11T07:43:28.829Z,75.51
2017-11-11T07:44:28.806Z,75.23
2017-11-11T07:45:28.789Z,75.32
2017-11-11T07:46:28.766Z,74.94
2017-11-11T07:47:28.741Z,75.23
2017-11-11T07:48:28.727Z,75.32
2017-11-11T07:49:28.689Z,75.23
2017-11-11T07:50:28.665Z,75.32
2017-11-11T07:51:28.646Z,75.60
2017-11-11T07:52:28.617Z,75.60
2017-11-11T07:53:28.596Z,74.94
2017-11-11T07:54:28.572Z,75.32
2017-11-11T07:55:28.563Z,74.66
2017-11-11T07:56:28.536Z,74.75
2017-11-11T07:57:28.507Z,74.85
2017-11-11T07:58:28.482Z,74.66
2017-11-11T07:59:28.453Z,74.66
2017-11-11T08:00:28.433Z,74.37
2017-11-11T08:01:28.410Z,74.56
2017-11-11T08:02:28.384Z,74.47
2017-11-11T08:03:28.375Z,74.56
2017-11-11T08:04:28.344Z,74.47
2017-11-11T08:05:28.327Z,74.56
2017-11-11T08:06:28.292Z,74.27
2017-11-11T08:07:28.268Z,74.75
2017-11-11T08:08:28.246Z,74.66
2017-11-11T08:09:28.221Z,74.66
2017-11-11T08:10:28.197Z,74.75
2017-11-11T08:11:28.173Z,74.56
2017-11-11T08:12:28.181Z,74.56
2017-11-11T08:13:28.128Z,74.47
2017-11-11T08:14:28.113Z,74.75
2017-11-11T08:15:28.092Z,74.66
2017-11-11T08:16:28.064Z,74.37
2017-11-11T08:17:28.036Z,74.66
2017-11-11T08:18:28.011Z,74.08
2017-11-11T08:19:28.010Z,73.99
2017-11-11T08:20:27.970Z,74.27
2017-11-11T08:21:27.946Z,73.99
2017-11-11T08:22:27.919Z,74.18
2017-11-11T08:23:27.906Z,74.18
2017-11-11T08:24:27.882Z,74.18
2017-11-11T08:25:27.847Z,73.99
2017-11-11T08:26:27.823Z,74.27
2017-11-11T08:27:27.801Z,74.08
2017-11-11T08:28:27.777Z,74.08
2017-11-11T08:29:27.761Z,73.71
2017-11-11T08:30:27.731Z,73.80
2017-11-11T08:31:27.725Z,74.37
2017-11-11T08:32:27.702Z,73.80
2017-11-11T08:33:27.669Z,74.12
2017-11-11T08:34:27.647Z,74.22
2017-11-11T08:35:27.632Z,73.55
2017-11-11T08:36:27.590Z,73.55
2017-11-11T08:37:27.568Z,73.55
2017-11-11T08:38:27.542Z,73.65
2017-11-11T08:39:27.521Z,73.55
2017-11-11T08:40:27.503Z,73.65
2017-11-11T08:41:27.475Z,73.93
2017-11-11T08:42:27.463Z,73.65
2017-11-11T08:43:27.432Z,73.55
2017-11-11T08:44:27.408Z,73.74
2017-11-11T08:45:27.381Z,73.46
2017-11-11T08:46:27.358Z,73.46
2017-11-11T08:47:27.338Z,72.89
2017-11-11T08:48:27.316Z,73.18
2017-11-11T08:49:27.297Z,72.99
2017-11-11T08:50:27.264Z,72.89
2017-11-11T08:51:27.295Z,73.08
2017-11-11T08:52:27.286Z,72.32
2017-11-11T08:53:27.197Z,73.27
2017-11-11T08:54:27.174Z,72.89
2017-11-11T08:55:27.149Z,73.65
2017-11-11T08:56:27.130Z,72.99
2017-11-11T08:57:27.112Z,73.74
2017-11-11T08:58:27.081Z,73.08
2017-11-11T08:59:27.067Z,73.55
2017-11-11T09:00:27.034Z,73.46
2017-11-11T09:01:27.021Z,73.36
2017-11-11T09:02:26.988Z,73.74
2017-11-11T09:03:26.965Z,73.52
2017-11-11T09:04:26.940Z,73.65
2017-11-11T09:05:26.917Z,73.65
2017-11-11T09:06:26.901Z,73.55
2017-11-11T09:07:26.872Z,73.08
2017-11-11T09:08:26.849Z,73.36
2017-11-11T09:09:26.825Z,73.46
2017-11-11T09:10:26.810Z,72.99
2017-11-11T09:11:26.784Z,73.04
2017-11-11T09:12:26.753Z,72.95
2017-11-11T09:13:26.751Z,73.08
2017-11-11T09:14:26.714Z,73.36
2017-11-11T09:15:26.688Z,73.08
2017-11-11T09:16:26.669Z,72.89
2017-11-11T09:17:26.639Z,73.18
2017-11-11T09:18:26.616Z,73.18
2017-11-11T09:19:26.601Z,72.41
2017-11-11T09:20:26.592Z,72.89
2017-11-11T09:21:26.551Z,72.79
2017-11-11T09:22:26.523Z,72.70
2017-11-11T09:23:26.513Z,72.70
2017-11-11T09:24:26.474Z,72.32
2017-11-11T09:25:26.454Z,72.22
2017-11-11T09:26:26.428Z,72.03
2017-11-11T09:27:26.405Z,71.56
2017-11-11T09:28:26.384Z,71.56
2017-11-11T09:29:26.365Z,72.13
2017-11-11T09:30:26.340Z,71.66
2017-11-11T09:31:26.326Z,71.31
2017-11-11T09:32:26.292Z,71.02
2017-11-11T09:33:26.269Z,70.17
2017-11-11T09:34:26.244Z,70.45
2017-11-11T09:35:26.231Z,70.45
2017-11-11T09:36:26.198Z,69.79
2017-11-11T09:37:26.175Z,69.69
2017-11-11T09:38:26.164Z,70.17
2017-11-11T09:39:26.135Z,69.88
2017-11-11T09:40:26.119Z,70.54
2017-11-11T09:41:26.083Z,70.36
2017-11-11T09:42:26.059Z,69.88
2017-11-11T09:43:26.039Z,69.88
2017-11-11T09:44:26.018Z,69.88
2017-11-11T09:45:26.011Z,70.26
2017-11-11T09:46:25.978Z,70.17
2017-11-11T09:47:25.960Z,69.98
2017-11-11T09:48:25.926Z,70.07
2017-11-11T09:49:25.901Z,70.17
2017-11-11T09:50:25.878Z,70.36
2017-11-11T09:51:25.864Z,70.17
2017-11-11T09:52:25.830Z,69.54
2017-11-11T09:53:25.809Z,69.21
2017-11-11T09:54:25.814Z,69.63
2017-11-11T09:55:25.777Z,69.06
2017-11-11T09:56:25.752Z,68.84
2017-11-11T09:57:25.720Z,69.50
2017-11-11T09:58:25.696Z,69.88
2017-11-11T09:59:25.675Z,69.54
2017-11-11T10:00:25.650Z,69.02
2017-11-11T10:01:25.647Z,69.73
2017-11-11T10:02:25.624Z,69.73
2017-11-11T10:03:25.586Z,69.15
2017-11-11T10:04:25.561Z,69.44
2017-11-11T10:05:25.541Z,68.87
2017-11-11T10:06:25.511Z,68.68
2017-11-11T10:07:25.491Z,67.54
2017-11-11T10:08:25.467Z,67.73
2017-11-11T10:09:25.453Z,67.73
2017-11-11T10:10:25.425Z,67.82
2017-11-11T10:11:25.438Z,67.63
2017-11-11T10:12:25.384Z,67.54
2017-11-11T10:13:25.353Z,67.73
2017-11-11T10:14:25.329Z,67.73
2017-11-11T10:15:25.309Z,67.35
2017-11-11T10:16:25.311Z,67.44
2017-11-11T10:17:25.263Z,66.97
2017-11-11T10:18:25.252Z,67.25
2017-11-11T10:19:25.217Z,67.73
2017-11-11T10:20:25.198Z,67.35
2017-11-11T10:21:25.173Z,67.73
2017-11-11T10:22:25.147Z,67.98
2017-11-11T10:23:25.149Z,67.79
2017-11-11T10:24:25.110Z,67.69
2017-11-11T10:25:25.094Z,67.60
2017-11-11T10:26:25.057Z,67.79
2017-11-11T10:27:25.034Z,67.50
2017-11-11T10:28:25.018Z,67.50
2017-11-11T10:29:24.997Z,67.79
2017-11-11T10:30:24.967Z,67.03
2017-11-11T10:31:24.957Z,66.84
2017-11-11T10:32:24.942Z,67.32
2017-11-11T10:33:24.897Z,67.88
2017-11-11T10:34:24.877Z,67.41
2017-11-11T10:35:24.857Z,67.41
2017-11-11T10:36:24.837Z,67.50
2017-11-11T10:37:24.809Z,67.60
2017-11-11T10:38:24.799Z,67.22
2017-11-11T10:39:24.782Z,66.46
2017-11-11T10:40:24.747Z,66.55
2017-11-11T10:41:24.719Z,66.27
2017-11-11T10:42:24.702Z,66.46
2017-11-11T10:43:24.671Z,66.46
2017-11-11T10:44:24.656Z,66.27
2017-11-11T10:45:24.632Z,66.27
2017-11-11T10:46:24.606Z,66.94
2017-11-11T10:47:24.589Z,66.65
2017-11-11T10:48:24.564Z,66.74
2017-11-11T10:49:24.541Z,66.94
2017-11-11T10:50:24.513Z,66.94
2017-11-11T10:51:24.529Z,66.74
2017-11-11T10:52:24.465Z,66.46
2017-11-11T10:53:24.472Z,66.84
2017-11-11T10:54:24.435Z,67.03
2017-11-11T10:55:24.407Z,66.55
2017-11-11T10:56:24.389Z,66.27
2017-11-11T10:57:24.351Z,66.36
2017-11-11T10:58:24.327Z,66.17
2017-11-11T10:59:24.306Z,66.27
2017-11-11T11:00:24.285Z,66.46
2017-11-11T11:01:24.280Z,66.65
2017-11-11T11:02:24.253Z,66.74
2017-11-11T11:03:24.240Z,66.46
2017-11-11T11:04:24.194Z,66.36
2017-11-11T11:05:24.174Z,66.27
2017-11-11T11:06:24.179Z,66.36
2017-11-11T11:07:24.123Z,66.36
2017-11-11T11:08:24.101Z,66.46
2017-11-11T11:09:24.078Z,66.17
2017-11-11T11:10:24.070Z,66.08
2017-11-11T11:11:24.038Z,66.36
2017-11-11T11:12:24.015Z,66.36
2017-11-11T11:13:24.009Z,65.80
2017-11-11T11:14:23.964Z,65.99
2017-11-11T11:15:23.941Z,66.46
2017-11-11T11:16:23.917Z,66.84
2017-11-11T11:17:23.894Z,67.60
2017-11-11T11:18:23.885Z,67.41
2017-11-11T11:19:23.862Z,66.17
2017-11-11T11:20:23.842Z,66.27
2017-11-11T11:21:23.804Z,65.99
2017-11-11T11:22:23.781Z,66.27
2017-11-11T11:23:23.759Z,66.27
2017-11-11T11:24:23.735Z,66.94
2017-11-11T11:25:23.724Z,66.17
2017-11-11T11:26:23.691Z,66.27
2017-11-11T11:27:23.677Z,66.46
2017-11-11T11:28:23.644Z,66.36
2017-11-11T11:29:23.638Z,66.46
2017-11-11T11:30:23.606Z,66.94
2017-11-11T11:31:23.609Z,66.27
2017-11-11T11:32:23.553Z,66.27
2017-11-11T11:33:23.530Z,66.17
2017-11-11T11:34:23.509Z,66.46
2017-11-11T11:35:23.490Z,66.55
2017-11-11T11:36:23.463Z,66.36
2017-11-11T11:37:23.439Z,66.46
2017-11-11T11:38:23.411Z,67.03
2017-11-11T11:39:23.392Z,66.46
2017-11-11T11:40:23.370Z,66.65
2017-11-11T11:41:23.353Z,66.94
2017-11-11T11:42:23.323Z,66.65
2017-11-11T11:43:23.308Z,67.50
2017-11-11T11:44:23.286Z,67.32
2017-11-11T11:45:23.257Z,67.41
2017-11-11T11:46:23.234Z,67.88
2017-11-11T11:47:23.209Z,67.50
2017-11-11T11:48:23.189Z,68.07
2017-11-11T11:49:23.167Z,68.17
2017-11-11T11:50:23.153Z,68.55
2017-11-11T11:51:23.119Z,68.55
2017-11-11T11:52:23.101Z,68.84
2017-11-11T11:53:23.075Z,69.02
2017-11-11T11:54:23.051Z,68.84
2017-11-11T11:55:23.030Z,69.02
2017-11-11T11:56:23.005Z,69.50
2017-11-11T11:57:22.988Z,69.02
2017-11-11T11:58:22.960Z,69.31
2017-11-11T11:59:22.940Z,69.02
2017-11-11T12:00:22.922Z,69.12
2017-11-11T12:01:22.896Z,68.84
2017-11-11T12:02:22.868Z,68.46
2017-11-11T12:03:22.844Z,68.84
2017-11-11T12:04:22.825Z,68.93
2017-11-11T12:05:22.802Z,69.31
2017-11-11T12:06:22.774Z,69.50
2017-11-11T12:07:22.754Z,69.69
2017-11-11T12:08:22.761Z,68.84
2017-11-11T12:09:22.709Z,68.93
2017-11-11T12:10:22.689Z,68.93
2017-11-11T12:11:22.710Z,68.93
2017-11-11T12:12:22.641Z,69.02
2017-11-11T12:13:22.623Z,68.84
2017-11-11T12:14:22.595Z,69.02
2017-11-11T12:15:22.576Z,69.02
2017-11-11T12:16:22.553Z,68.84
2017-11-11T12:17:22.530Z,69.02
2017-11-11T12:18:22.507Z,69.02
2017-11-11T12:19:22.481Z,68.65
2017-11-11T12:20:22.461Z,68.65
2017-11-11T12:21:22.435Z,68.65
2017-11-11T12:22:22.412Z,69.02
2017-11-11T12:23:22.397Z,69.02
2017-11-11T12:24:22.367Z,68.68
2017-11-11T12:25:22.347Z,68.40
2017-11-11T12:26:22.323Z,68.11
2017-11-11T12:27:22.299Z,68.27
2017-11-11T12:28:22.275Z,68.40
2017-11-11T12:29:22.253Z,68.07
2017-11-11T12:30:22.229Z,67.82
2017-11-11T12:31:22.208Z,67.69
2017-11-11T12:32:22.207Z,68.27
2017-11-11T12:33:22.172Z,68.36
2017-11-11T12:34:22.153Z,68.77
2017-11-11T12:35:22.120Z,67.50
2017-11-11T12:36:22.098Z,66.94
2017-11-11T12:37:22.070Z,67.03
2017-11-11T12:38:22.045Z,66.59
2017-11-11T12:39:22.040Z,67.16
2017-11-11T12:40:22.005Z,66.84
2017-11-11T12:41:21.978Z,66.55
2017-11-11T12:42:21.963Z,66.65
2017-11-11T12:43:21.944Z,66.74
2017-11-11T12:44:21.912Z,66.49
2017-11-11T12:45:21.888Z,66.27
2017-11-11T12:46:21.865Z,66.27
2017-11-11T12:47:21.842Z,66.87
2017-11-11T12:48:21.818Z,66.74
2017-11-11T12:49:21.798Z,67.13
2017-11-11T12:50:21.787Z,66.65
2017-11-11T12:51:21.789Z,67.13
2017-11-11T12:52:21.729Z,67.50
2017-11-11T12:53:21.706Z,67.69
2017-11-11T12:54:21.683Z,67.32
2017-11-11T12:55:21.660Z,67.54
2017-11-11T12:56:21.643Z,67.32
2017-11-11T12:57:21.622Z,67.50
2017-11-11T12:58:21.604Z,67.50
2017-11-11T12:59:21.574Z,68.17
2017-11-11T13:00:21.548Z,67.88
2017-11-11T13:01:21.524Z,67.88
2017-11-11T13:02:21.511Z,67.41
2017-11-11T13:03:21.476Z,67.50
2017-11-11T13:04:21.454Z,67.50
2017-11-11T13:05:21.434Z,67.60
2017-11-11T13:06:21.409Z,68.07
2017-11-11T13:07:21.387Z,68.07
2017-11-11T13:08:21.365Z,67.50
2017-11-11T13:09:21.348Z,68.17
2017-11-11T13:10:21.318Z,68.07
2017-11-11T13:11:21.299Z,68.46
2017-11-11T13:12:21.291Z,67.88
2017-11-11T13:13:21.253Z,67.88
2017-11-11T13:14:21.230Z,67.69
2017-11-11T13:15:21.208Z,67.98
2017-11-11T13:16:21.185Z,68.65
2017-11-11T13:17:21.160Z,68.17
2017-11-11T13:18:21.139Z,68.46
2017-11-11T13:19:21.113Z,68.07
2017-11-11T13:20:21.091Z,68.36
2017-11-11T13:21:21.070Z,68.36
2017-11-11T13:22:21.042Z,68.36
2017-11-11T13:23:21.028Z,68.46
2017-11-11T13:24:21.000Z,68.84
2017-11-11T13:25:20.977Z,68.55
2017-11-11T13:26:20.954Z,68.84
2017-11-11T13:27:20.934Z,68.74
2017-11-11T13:28:20.913Z,69.31
2017-11-11T13:29:20.885Z,69.41
2017-11-11T13:30:20.862Z,69.12
2017-11-11T13:31:20.889Z,69.69
2017-11-11T13:32:20.820Z,69.98
2017-11-11T13:33:20.796Z,69.98
2017-11-11T13:34:20.770Z,70.17
2017-11-11T13:35:20.756Z,70.26
2017-11-11T13:36:20.725Z,70.74
2017-11-11T13:37:20.704Z,71.50
2017-11-11T13:38:20.678Z,71.88
2017-11-11T13:39:20.658Z,71.88
2017-11-11T13:40:20.641Z,71.97
2017-11-11T13:41:20.612Z,72.16
2017-11-11T13:42:20.589Z,72.07
2017-11-11T13:43:20.573Z,72.35
2017-11-11T13:44:20.546Z,72.45
2017-11-11T13:45:20.521Z,73.02
2017-11-11T13:46:20.497Z,72.83
2017-11-11T13:47:20.473Z,73.30
2017-11-11T13:48:20.457Z,73.69
2017-11-11T13:49:20.431Z,73.59
2017-11-11T13:50:20.406Z,73.49
2017-11-11T13:51:20.387Z,74.26
2017-11-11T13:52:20.369Z,74.35
2017-11-11T13:53:20.337Z,74.54
2017-11-11T13:54:20.311Z,74.44
2017-11-11T13:55:20.292Z,74.44
2017-11-11T13:56:20.267Z,74.82
2017-11-11T13:57:20.249Z,75.21
2017-11-11T13:58:20.222Z,75.02
2017-11-11T13:59:20.203Z,75.02
2017-11-11T14:00:20.177Z,75.30
2017-11-11T14:01:20.153Z,75.11
2017-11-11T14:02:20.135Z,75.40
2017-11-11T14:03:20.108Z,75.30
2017-11-11T14:04:20.085Z,75.49
2017-11-11T14:05:20.065Z,75.02
2017-11-11T14:06:20.051Z,75.11
2017-11-11T14:07:26.674Z,75.45
2017-11-11T14:08:19.994Z,76.21
2017-11-11T14:09:19.999Z,76.12
2017-11-11T14:10:19.948Z,75.84
2017-11-11T14:11:19.987Z,76.44
2017-11-11T14:12:19.902Z,76.25
2017-11-11T14:13:19.879Z,76.78
2017-11-11T14:14:19.864Z,77.17
2017-11-11T14:15:19.847Z,77.07
2017-11-11T14:16:19.818Z,77.07
2017-11-11T14:17:19.786Z,77.07
2017-11-11T14:18:19.765Z,77.39
2017-11-11T14:19:19.742Z,77.45
2017-11-11T14:20:19.721Z,77.87
2017-11-11T14:21:19.695Z,77.49
2017-11-11T14:22:19.681Z,77.39